AirNav   Everest Fuels
 
 579 users online  

1LL7 Edwin G Bennett Airport
Sheffield, Illinois, USA

GOING TO SHEFFIELD?


FAA INFORMATION EFFECTIVE 10 SEPTEMBER 2020

Location

FAA Identifier: 1LL7
Lat/Long: 41-20-59.1290N 089-46-23.3660W
41-20.985483N 089-46.389433W
41.3497581,-89.7731572
(estimated)
Elevation: 690 ft. / 210.3 m (surveyed)
Variation: 01E (1985)
From city: 2 miles SW of SHEFFIELD, IL
Time zone: UTC -5 (UTC -6 during Standard Time)
Zip code: 61345

Airport Operations

Airport use: Private use. Permission required prior to landing
Activation date: 03/1967
Control tower: no
ARTCC: CHICAGO CENTER
FSS: KANKAKEE FLIGHT SERVICE STATION
Attendance: IREG
Wind indicator: yes
Segmented circle: no

Nearby radio navigation aids

VOR radial/distance  VOR name  Freq  Var
BDFr324/14.1BRADFORD VORTAC114.7000E
CVAr120/38.5DAVENPORT VORTAC113.8004E
PLLr194/38.6POLO VOR/DME111.2003E
GBGr047/38.8GALESBURG VOR/DME109.8003E
MZVr082/39.0MOLINE VOR/DME114.4005E

Airport Services

Airframe service: NONE
Powerplant service: NONE

Runway Information

Runway E/W

Dimensions: 2000 x 100 ft. / 610 x 30 m
Surface: turf
RUNWAY E  RUNWAY W
Traffic pattern: leftleft

Airport Ownership and Management from official FAA records

Ownership: Privately-owned
Owner: EDWIN G. BENNETT
RTE 1
SHEFFIELD, IL 61361
Phone 815-454-2281

Airport Operational Statistics

Aircraft based on the field: 2
Single engine airplanes: 2
    

Additional Remarks

FOR CD CTC CHICAGO ARTCC AT 630-906-8921.

Instrument Procedures

There are no published instrument procedures at 1LL7.

Some nearby airports with instrument procedures:

KEZI - Kewanee Municipal Airport (12 nm SW)
KSQI - Whiteside County Airport-Jos H Bittorf Field (24 nm N)
C75 - Marshall County Airport (26 nm SE)
KVYS - Illinois Valley Regional Airport-Walter A Duncan Field (28 nm E)
C73 - Dixon Municipal Airport-Charles R. Walgreen Field (33 nm NE)
 
Loc | Ops | Rwys | IFR | FBO | Links
Com | Nav | Svcs | Stats | Notes
Area around 1LL7 (Edwin G Bennett Airport)
 
Road maps at: MapQuest Bing Google
 
Aerial photo
No photo
 
Sectional chart

 
Airport distance calculator
Flying to Edwin G Bennett Airport? Find the distance to fly.

From to 1LL7

Sunrise and sunset
Times for 22-Sep-2020
 Local
(UTC-5)
 Zulu
(UTC)
Morning civil twilight06:2111:21
Sunrise06:4911:49
Sunset18:5423:54
Evening civil twilight19:2200:22

Current date and time
Zulu (UTC)  22-Sep-2020 05:33:36
Local (UTC-5)  22-Sep-2020 00:33:36
 
METAR
KSQI 
24nm N 
220456Z AUTO 00000KT 10SM CLR 10/09 A3024 RMK AO2 SLP104 T01000094
KC75 
27nm SE 
220515Z AUTO 00000KT 10SM CLR 11/09 A3024 RMK AO2 T01120086
KVYS 
28nm E 
220515Z AUTO 18003KT 10SM CLR 15/07 A3024 RMK AO2 T01470072
KMLI 
34nm W 
220452Z AUTO 00000KT 10SM CLR 12/09 A3022 RMK AO2 SLP231 T01220094
KCWI 
37nm NW 
220456Z AUTO 11003KT 10SM CLR 14/11 A3024 RMK AO2 SLP241 T01390106
KGBG 
39nm SW 
220515Z AUTO 00000KT 10SM CLR 10/09 A3024 RMK AO2 T01040090
KDVN 
40nm NW 
220452Z AUTO 00000KT 10SM CLR 11/09 A3024 RMK AO2 SLP238 T01110094
KPIA 
41nm S 
220454Z 00000KT 10SM CLR 13/09 A3024 RMK AO2 SLP239 T01330089
KSFY 
44nm N 
220515Z AUTO RMK AO2 PWINO TSNO
KRPJ 
45nm NE 
220515Z AUTO 16004KT 10SM CLR 09/08 A3025 RMK AO2 T00850077
TAF
KMLI 
34nm W 
211720Z 2118/2218 18010KT P6SM SCT150 FM220000 16005KT P6SM SCT150
KPIA 
41nm S 
211744Z 2118/2218 16006KT P6SM SCT150
NOTAMs
Click for the latest NOTAMs
NOTAMs are issued by the DoD/FAA and will open in a separate window not controlled by AirNav.

 

 
 

Would you like to see your business listed on this page?

 If your business provides an interesting product or service to pilots, flight crews, aircraft, or users of the Edwin G Bennett Airport, you should consider listing it here.  To start the listing process, click on the button below
 
Add a business
 

Other Pages about Edwin G Bennett Airport

Update a link
 
Copyright © AirNav, LLC. All rights reserved. Privacy Policy  Contact